Time;durP1;ratioP1;P1;durP2;ratioP2;P2;SDS_P1;SDS_P2;PMS_P1;PMS_P2;Temp;Humidity;BMP_temperature;BMP_pressure;BME280_temperature;BME280_humidity;BME280_pressure;Samples;Min_cycle;Max_cycle;Signal;HPM_P1;HPM_P2
2024/03/22 00:00:54;;;;;;;41.70;26.60;;;;;;;10.37;81.19;100273.09;128681;1282;108681;-83
2024/03/22 00:04:19;;;;;;;37.90;24.30;;;;;;;10.36;81.63;100272.95;128626;1280;108770;-83
2024/03/22 00:07:24;;;;;;;38.80;26.00;;;;;;;10.35;81.76;100272.46;128525;1280;107858;-83
2024/03/22 00:10:30;;;;;;;41.40;26.70;;;;;;;10.38;81.89;100272.06;128495;1280;108934;-83
2024/03/22 00:13:35;;;;;;;40.70;27.80;;;;;;;10.40;81.78;100269.55;128573;1280;108840;-84
2024/03/22 00:16:40;;;;;;;43.20;28.20;;;;;;;10.39;82.32;100269.67;128697;1280;107785;-83
2024/03/22 00:19:45;;;;;;;49.80;29.80;;;;;;;10.35;82.09;100266.47;128704;1280;107722;-83
2024/03/22 00:22:50;;;;;;;41.70;27.50;;;;;;;10.32;83.25;100264.61;128567;1289;106866;-83
2024/03/22 00:25:55;;;;;;;41.70;28.20;;;;;;;10.27;84.07;100263.85;128721;1282;108655;-83
2024/03/22 00:29:01;;;;;;;40.50;26.80;;;;;;;10.26;83.40;100261.61;128749;1279;108784;-83
2024/03/22 00:32:07;;;;;;;45.80;29.70;;;;;;;10.30;83.24;100258.11;128547;1280;106735;-83
2024/03/22 00:35:12;;;;;;;43.60;29.10;;;;;;;10.27;86.13;100254.10;128622;1277;107622;-83
2024/03/22 00:38:18;;;;;;;43.50;28.90;;;;;;;10.18;86.11;100254.23;128692;1280;106378;-83
2024/03/22 00:41:23;;;;;;;41.60;27.60;;;;;;;10.13;86.34;100252.95;128490;1277;107724;-83
2024/03/22 00:44:28;;;;;;;39.20;26.90;;;;;;;10.11;85.77;100251.52;128439;1281;106743;-83
2024/03/22 00:47:33;;;;;;;41.00;28.00;;;;;;;10.13;86.02;100249.78;128528;1280;106706;-83
2024/03/22 00:50:39;;;;;;;38.60;24.90;;;;;;;10.11;86.26;100246.59;128619;1281;106638;-83
2024/03/22 00:53:44;;;;;;;37.20;23.50;;;;;;;10.08;87.68;100245.78;128782;1276;107801;-83
2024/03/22 00:56:49;;;;;;;37.30;26.70;;;;;;;10.03;87.38;100247.70;128613;1277;107811;-83
2024/03/22 00:59:54;;;;;;;38.20;25.60;;;;;;;10.04;87.76;100245.81;128723;1276;107861;-83
2024/03/22 01:03:00;;;;;;;41.40;26.60;;;;;;;10.07;86.18;100242.68;128693;1281;108228;-83
2024/03/22 01:06:05;;;;;;;39.30;25.90;;;;;;;10.09;86.50;100244.23;128536;1279;107419;-83
2024/03/22 01:09:10;;;;;;;34.10;23.90;;;;;;;10.10;87.47;100242.64;128646;1280;107881;-83
2024/03/22 01:12:15;;;;;;;34.30;23.90;;;;;;;10.07;87.14;100240.44;128587;1280;107267;-84
2024/03/22 01:15:21;;;;;;;35.70;24.60;;;;;;;10.07;88.17;100236.65;128708;1277;106442;-83
2024/03/22 01:18:26;;;;;;;37.30;24.60;;;;;;;10.08;87.16;100234.98;128570;1281;107765;-83
2024/03/22 01:21:32;;;;;;;33.20;22.70;;;;;;;10.06;87.44;100232.45;128748;1277;106548;-83
2024/03/22 01:24:37;;;;;;;33.30;21.90;;;;;;;10.07;86.85;100242.20;128712;1277;106821;-83
2024/03/22 01:27:43;;;;;;;35.40;22.90;;;;;;;10.07;87.17;100250.58;128586;1279;108058;-83
2024/03/22 01:30:48;;;;;;;33.30;23.20;;;;;;;10.10;86.96;100249.20;128698;1279;107487;-83
2024/03/22 01:33:53;;;;;;;36.80;23.90;;;;;;;10.12;86.94;100249.88;128566;1277;108657;-83
2024/03/22 01:36:59;;;;;;;36.10;25.50;;;;;;;10.13;87.39;100244.58;128611;1277;108801;-84
2024/03/22 01:40:05;;;;;;;33.90;22.30;;;;;;;10.12;86.71;100239.70;128527;1294;106895;-84
2024/03/22 01:43:10;;;;;;;35.40;22.90;;;;;;;10.10;88.12;100232.61;128700;1280;106706;-86
2024/03/22 01:46:16;;;;;;;33.40;23.20;;;;;;;10.03;87.70;100238.24;128544;1279;107288;-86
2024/03/22 01:49:22;;;;;;;31.40;22.00;;;;;;;10.07;87.87;100242.20;128549;1281;108423;-84
2024/03/22 01:52:27;;;;;;;32.30;23.80;;;;;;;10.10;87.21;100244.94;128913;1276;108527;-84
2024/03/22 01:55:32;;;;;;;33.10;22.50;;;;;;;10.11;87.71;100244.59;128768;1277;108848;-84
2024/03/22 01:58:38;;;;;;;30.10;20.70;;;;;;;10.10;88.04;100238.84;128785;1277;108556;-84
2024/03/22 02:01:43;;;;;;;32.40;22.50;;;;;;;10.07;88.25;100240.34;128810;1280;108300;-84
2024/03/22 02:04:50;;;;;;;29.30;21.00;;;;;;;10.06;87.66;100236.41;128666;1281;107312;-84
2024/03/22 02:07:56;;;;;;;30.70;22.10;;;;;;;10.07;87.66;100235.45;128579;1279;107075;-84
2024/03/22 02:11:01;;;;;;;33.10;22.20;;;;;;;10.06;87.13;100230.40;128492;1280;108859;-84
2024/03/22 02:14:06;;;;;;;31.90;21.20;;;;;;;10.03;87.95;100230.09;128597;1277;108807;-84
2024/03/22 02:17:12;;;;;;;26.30;18.10;;;;;;;9.99;87.64;100228.60;128504;1279;108666;-83
2024/03/22 02:20:17;;;;;;;29.20;20.60;;;;;;;9.97;87.40;100223.80;128604;1279;107342;-84
2024/03/22 02:23:32;;;;;;;30.50;22.00;;;;;;;10.00;87.40;100222.58;128670;1280;108798;-84
2024/03/22 02:26:38;;;;;;;32.40;21.80;;;;;;;10.04;87.38;100218.25;128639;1281;107731;-83
2024/03/22 02:29:43;;;;;;;31.10;22.30;;;;;;;10.07;87.14;100224.55;128619;1279;106717;-83
2024/03/22 02:32:48;;;;;;;28.50;19.30;;;;;;;10.08;87.17;100230.29;128599;1280;240039;-84
2024/03/22 02:35:53;;;;;;;26.80;18.40;;;;;;;10.03;87.38;100226.38;128787;1276;107869;-83
2024/03/22 02:38:58;;;;;;;27.60;19.50;;;;;;;9.98;87.43;100229.39;128730;1281;108565;-83
2024/03/22 02:42:04;;;;;;;28.00;19.40;;;;;;;9.97;87.43;100227.32;128757;1279;107880;-84
2024/03/22 02:45:10;;;;;;;25.10;18.00;;;;;;;9.98;87.43;100232.05;128643;1276;107218;-83
2024/03/22 02:48:16;;;;;;;24.50;17.50;;;;;;;9.93;87.42;100230.40;128806;1279;106712;-83
2024/03/22 02:51:21;;;;;;;23.50;15.80;;;;;;;9.87;87.96;100232.08;128818;1277;107756;-83
2024/03/22 02:54:26;;;;;;;20.50;14.00;;;;;;;9.76;87.76;100233.97;129037;1276;108839;-84
2024/03/22 02:57:31;;;;;;;22.80;15.50;;;;;;;9.72;87.92;100238.48;128883;1275;109051;-83
2024/03/22 03:00:39;;;;;;;21.60;15.50;;;;;;;9.68;87.75;100237.94;128830;1280;108892;-83
2024/03/22 03:03:44;;;;;;;29.50;19.80;;;;;;;9.65;87.54;100242.19;128727;1279;107557;-83
2024/03/22 03:06:49;;;;;;;24.10;17.40;;;;;;;9.63;88.22;100237.54;128579;1280;107677;-83
2024/03/22 03:09:54;;;;;;;21.40;15.20;;;;;;;9.60;88.34;100238.48;128567;1277;107472;-83
2024/03/22 03:12:59;;;;;;;19.60;13.60;;;;;;;9.57;87.96;100234.54;128497;1279;107708;-83
2024/03/22 03:16:05;;;;;;;21.70;15.80;;;;;;;9.54;87.95;100233.77;128547;1280;107950;-85
2024/03/22 03:19:11;;;;;;;21.70;16.20;;;;;;;9.55;87.87;100234.02;128585;1279;108575;-85
2024/03/22 03:22:16;;;;;;;25.00;16.50;;;;;;;9.57;88.05;100236.32;128705;1280;106231;-85
2024/03/22 03:25:21;;;;;;;23.90;17.00;;;;;;;9.50;88.31;100239.46;128858;1280;107669;-85
2024/03/22 03:28:27;;;;;;;22.10;16.00;;;;;;;9.38;89.20;100240.08;129057;1279;106989;-84
2024/03/22 03:31:32;;;;;;;18.70;12.90;;;;;;;9.27;89.19;100236.73;128714;1279;107573;-82
2024/03/22 03:34:38;;;;;;;21.30;14.70;;;;;;;9.22;89.49;100237.30;128675;1276;107821;-82
2024/03/22 03:37:43;;;;;;;21.90;14.90;;;;;;;9.21;90.06;100240.76;130098;1280;107494;-82
2024/03/22 03:40:48;;;;;;;23.60;17.20;;;;;;;9.21;89.77;100241.31;129102;1280;107651;-81
2024/03/22 03:43:53;;;;;;;20.60;14.50;;;;;;;9.22;90.02;100243.52;128683;1276;108656;-81
2024/03/22 03:46:58;;;;;;;24.50;17.50;;;;;;;9.20;89.75;100238.99;129244;1275;108766;-83
2024/03/22 03:50:03;;;;;;;18.10;13.00;;;;;;;9.20;90.07;100242.67;128688;1280;106509;-78
2024/03/22 03:53:09;;;;;;;15.30;12.20;;;;;;;9.22;89.95;100241.94;128659;1280;107190;-78
2024/03/22 03:56:14;;;;;;;18.10;13.30;;;;;;;9.24;90.06;100242.48;128612;1279;106541;-78
2024/03/22 03:59:19;;;;;;;19.20;13.50;;;;;;;9.20;90.21;100241.23;128486;1282;108762;-78
2024/03/22 04:02:24;;;;;;;16.50;11.70;;;;;;;9.12;91.11;100237.95;128497;1277;107487;-78
2024/03/22 04:05:29;;;;;;;15.90;11.40;;;;;;;9.03;91.23;100238.78;128504;1289;108773;-78
2024/03/22 04:08:34;;;;;;;16.20;12.10;;;;;;;8.96;91.87;100242.20;128511;1277;108655;-78
2024/03/22 04:11:39;;;;;;;17.30;13.30;;;;;;;8.95;91.35;100245.17;128275;1278;107469;-78
2024/03/22 04:14:45;;;;;;;18.10;12.80;;;;;;;8.97;90.75;100251.88;128385;1279;106845;-78
2024/03/22 04:17:50;;;;;;;22.80;15.80;;;;;;;8.98;91.60;100250.92;128418;1280;108834;-78
2024/03/22 04:20:59;;;;;;;17.30;12.60;;;;;;;8.93;92.25;100254.57;128344;1280;106500;-78
2024/03/22 04:24:05;;;;;;;20.10;15.20;;;;;;;8.90;92.40;100254.92;128495;1280;107685;-78
2024/03/22 04:27:11;;;;;;;23.10;17.00;;;;;;;8.86;93.65;100259.85;128448;1282;108651;-78
2024/03/22 04:30:16;;;;;;;29.00;19.50;;;;;;;8.81;94.47;100260.89;128486;1277;108559;-78
2024/03/22 04:33:21;;;;;;;18.50;13.20;;;;;;;8.75;93.56;100257.54;128359;1280;107767;-78
2024/03/22 04:36:26;;;;;;;19.40;13.90;;;;;;;8.76;92.74;100246.02;128423;1280;107758;-78
2024/03/22 04:39:31;;;;;;;71.00;39.30;;;;;;;8.81;93.90;100241.19;128320;1280;108849;-77
2024/03/22 04:42:37;;;;;;;72.50;40.80;;;;;;;8.81;93.13;100254.28;128335;1281;108927;-78
2024/03/22 04:45:43;;;;;;;30.50;20.40;;;;;;;8.78;93.58;100260.81;128494;1281;106304;-77
2024/03/22 04:48:48;;;;;;;23.70;16.60;;;;;;;8.74;93.36;100262.19;128418;1280;107868;-78
2024/03/22 04:51:54;;;;;;;20.70;14.90;;;;;;;8.75;92.45;100255.75;128399;1280;108498;-78
2024/03/22 04:54:59;;;;;;;50.00;32.20;;;;;;;8.78;92.24;100261.50;128412;1281;108790;-77
2024/03/22 04:58:04;;;;;;;41.50;27.10;;;;;;;8.79;91.89;100266.16;128410;1279;107622;-78
2024/03/22 05:01:11;;;;;;;45.20;28.50;;;;;;;8.81;91.80;100266.88;128355;1279;108470;-77
2024/03/22 05:04:16;;;;;;;27.00;19.90;;;;;;;8.78;92.70;100265.88;128551;1277;106433;-78
2024/03/22 05:07:21;;;;;;;20.80;15.70;;;;;;;8.75;92.31;100266.21;128545;1279;107687;-78
2024/03/22 05:10:26;;;;;;;22.10;15.00;;;;;;;8.76;91.98;100264.15;128369;1279;107644;-77
2024/03/22 05:13:32;;;;;;;27.70;20.20;;;;;;;8.86;91.64;100270.48;128269;1278;107497;-78
2024/03/22 05:16:37;;;;;;;25.60;19.50;;;;;;;8.88;92.27;100271.55;128278;1280;108392;-78
2024/03/22 05:19:42;;;;;;;27.70;21.50;;;;;;;8.84;92.27;100273.38;128411;1279;107230;-78
2024/03/22 05:22:47;;;;;;;29.10;20.90;;;;;;;8.83;91.95;100275.34;128490;1276;106827;-78
2024/03/22 05:25:52;;;;;;;27.00;19.90;;;;;;;8.83;91.72;100270.91;128498;1277;107773;-78
2024/03/22 05:28:57;;;;;;;21.00;15.90;;;;;;;8.80;91.89;100269.63;128291;1281;106673;-77
2024/03/22 05:32:03;;;;;;;27.20;19.80;;;;;;;8.80;91.96;100273.02;128272;1282;106369;-78
2024/03/22 05:35:09;;;;;;;26.70;18.90;;;;;;;8.79;92.06;100276.56;128386;1282;107892;-77
2024/03/22 05:38:14;;;;;;;24.70;17.90;;;;;;;8.78;92.24;100276.72;128441;1279;109108;-78
2024/03/22 05:41:19;;;;;;;27.90;20.20;;;;;;;8.79;92.20;100276.11;128354;1276;107666;-78
2024/03/22 05:44:25;;;;;;;25.50;18.10;;;;;;;8.77;91.97;100280.02;128716;1281;106343;-77
2024/03/22 05:47:31;;;;;;;25.10;17.40;;;;;;;8.76;91.97;100281.18;128573;1281;105855;-78
2024/03/22 05:50:36;;;;;;;27.80;18.70;;;;;;;8.76;92.69;100278.20;128577;1277;106744;-77
2024/03/22 05:53:41;;;;;;;29.00;21.30;;;;;;;8.77;92.53;100279.17;128401;1280;107256;-78
2024/03/22 05:56:47;;;;;;;34.10;24.30;;;;;;;8.76;92.44;100277.11;128447;1281;107147;-78
2024/03/22 05:59:53;;;;;;;37.30;26.10;;;;;;;8.75;92.48;100280.95;128475;1277;107207;-78
2024/03/22 06:02:59;;;;;;;28.30;19.20;;;;;;;8.75;92.32;100274.55;128464;1281;108632;-78
2024/03/22 06:06:05;;;;;;;28.30;19.10;;;;;;;8.76;92.44;100277.21;128380;1281;108881;-78
2024/03/22 06:09:13;;;;;;;38.90;27.70;;;;;;;8.80;91.86;100275.88;128273;1281;107665;-76
2024/03/22 06:12:18;;;;;;;37.60;25.40;;;;;;;8.86;92.02;100277.29;128450;1279;108617;-77
2024/03/22 06:15:23;;;;;;;30.40;22.30;;;;;;;8.94;91.90;100278.95;132642;1276;107934;-77
2024/03/22 06:18:29;;;;;;;31.30;22.60;;;;;;;9.04;91.96;100274.00;132638;1276;108761;-77
2024/03/22 06:21:34;;;;;;;30.90;21.20;;;;;;;9.13;91.57;100275.63;132613;1276;108131;-77
2024/03/22 06:24:39;;;;;;;28.40;19.10;;;;;;;9.19;91.58;100273.13;132635;1276;106275;-77
2024/03/22 06:27:44;;;;;;;28.60;19.40;;;;;;;9.27;91.58;100274.52;128270;1282;108563;-77
2024/03/22 06:30:50;;;;;;;30.50;21.50;;;;;;;9.41;91.63;100273.01;128332;1281;108229;-77
2024/03/22 06:33:56;;;;;;;29.80;21.40;;;;;;;9.58;91.49;100265.02;128216;1281;106658;-80
2024/03/22 06:37:01;;;;;;;31.60;22.70;;;;;;;9.71;91.31;100263.98;128307;1278;108654;-77
2024/03/22 06:40:09;;;;;;;24.90;18.80;;;;;;;9.78;90.91;100261.34;128399;1281;108870;-77
2024/03/22 06:43:14;;;;;;;23.90;17.50;;;;;;;9.79;90.67;100258.35;128643;1279;108722;-77
2024/03/22 06:46:20;;;;;;;21.40;15.80;;;;;;;9.83;90.83;100257.64;128458;1277;107849;-77
2024/03/22 06:49:25;;;;;;;21.80;16.20;;;;;;;9.84;90.43;100259.88;128427;1279;108233;-77
2024/03/22 06:52:30;;;;;;;22.10;15.90;;;;;;;9.88;90.52;100259.30;128528;1278;106640;-77
2024/03/22 06:55:35;;;;;;;38.70;21.80;;;;;;;9.89;90.27;100260.81;128573;1279;107283;-77
2024/03/22 06:58:40;;;;;;;47.70;25.50;;;;;;;9.83;90.08;100267.20;128487;1280;107621;-76
2024/03/22 07:01:46;;;;;;;42.90;24.00;;;;;;;9.73;89.92;100266.23;128403;1279;106890;-76
2024/03/22 07:04:51;;;;;;;24.90;16.40;;;;;;;9.66;90.25;100263.16;128295;1280;109041;-77
2024/03/22 07:07:57;;;;;;;20.90;15.10;;;;;;;9.67;90.38;100263.60;128399;1281;106914;-76
2024/03/22 07:11:08;;;;;;;25.60;17.40;;;;;;;9.68;90.16;100268.68;128313;1281;108588;-76
2024/03/22 07:14:13;;;;;;;28.90;19.60;;;;;;;9.65;90.14;100266.49;128523;1278;108552;-76
2024/03/22 07:17:23;;;;;;;24.30;17.00;;;;;;;9.65;90.23;100268.73;128344;1279;107629;-77
2024/03/22 07:20:29;;;;;;;25.90;18.90;;;;;;;9.75;90.00;100264.10;128361;1281;106587;-77
2024/03/22 07:23:34;;;;;;;24.90;17.00;;;;;;;9.80;90.05;100261.30;128257;1279;107023;-77
2024/03/22 07:26:39;;;;;;;21.90;13.40;;;;;;;9.83;89.78;100264.73;128250;1279;108544;-77
2024/03/22 07:29:45;;;;;;;19.90;14.70;;;;;;;9.87;89.70;100259.75;128389;1281;106516;-78
2024/03/22 07:32:50;;;;;;;17.70;13.50;;;;;;;10.01;90.07;100252.20;128400;1280;108888;-76
2024/03/22 07:35:55;;;;;;;19.50;14.10;;;;;;;10.24;89.69;100248.16;128296;1280;106872;-77
2024/03/22 07:39:00;;;;;;;19.30;13.90;;;;;;;10.44;89.52;100250.28;128275;1277;107859;-77
2024/03/22 07:42:05;;;;;;;18.10;14.20;;;;;;;10.58;89.24;100243.91;128442;1280;108778;-77
2024/03/22 07:45:11;;;;;;;18.60;13.10;;;;;;;10.62;88.48;100245.13;128339;1280;108705;-77
2024/03/22 07:48:16;;;;;;;24.20;15.50;;;;;;;10.53;88.07;100244.46;128354;1282;107903;-77
2024/03/22 07:51:22;;;;;;;17.00;13.10;;;;;;;10.46;88.11;100239.81;128310;1279;108820;-77
2024/03/22 07:54:27;;;;;;;17.70;13.10;;;;;;;10.42;88.04;100240.37;128311;1279;106333;-77
2024/03/22 07:57:32;;;;;;;15.80;12.00;;;;;;;10.34;87.08;100238.49;128435;1281;107077;-77
2024/03/22 08:00:37;;;;;;;16.40;12.70;;;;;;;10.37;88.00;100239.08;128335;1282;107629;-77
2024/03/22 08:03:42;;;;;;;17.60;13.20;;;;;;;10.52;88.12;100236.31;128376;1281;106843;-77
2024/03/22 08:06:48;;;;;;;19.40;14.20;;;;;;;10.64;87.60;100235.92;128275;1280;107748;-77
2024/03/22 08:09:55;;;;;;;18.10;13.50;;;;;;;10.70;87.39;100232.05;128225;1280;107650;-77
2024/03/22 08:13:01;;;;;;;16.90;12.20;;;;;;;10.74;87.28;100231.80;128404;1277;107482;-77
2024/03/22 08:16:07;;;;;;;17.50;12.80;;;;;;;10.75;86.82;100234.02;128337;1279;107800;-77
2024/03/22 08:19:13;;;;;;;65.90;45.70;;;;;;;10.82;87.05;100234.60;128411;1280;108794;-77
2024/03/22 08:22:18;;;;;;;131.30;70.80;;;;;;;10.86;86.56;100234.86;128278;1280;108716;-77
2024/03/22 08:25:24;;;;;;;39.50;27.30;;;;;;;10.88;85.83;100237.85;128370;1277;108727;-77
2024/03/22 08:28:30;;;;;;;31.60;27.00;;;;;;;10.92;85.81;100235.02;128535;1279;108572;-77
2024/03/22 08:31:35;;;;;;;26.00;17.20;;;;;;;10.92;85.92;100236.45;128275;1279;108883;-77
2024/03/22 08:34:40;;;;;;;21.90;14.70;;;;;;;10.89;85.86;100240.26;128260;1279;106544;-77
2024/03/22 08:37:45;;;;;;;20.00;14.70;;;;;;;10.88;86.12;100235.38;128242;1279;107732;-78
2024/03/22 08:40:51;;;;;;;19.40;13.30;;;;;;;10.90;85.53;100235.00;128279;1279;108902;-76
2024/03/22 08:43:57;;;;;;;63.10;30.30;;;;;;;10.89;84.39;100234.27;128238;1280;105578;-77
2024/03/22 08:47:02;;;;;;;52.90;31.10;;;;;;;10.92;85.01;100235.21;128275;1281;107613;-77
2024/03/22 08:50:08;;;;;;;25.40;16.80;;;;;;;11.05;84.98;100236.02;128316;1281;107699;-77
2024/03/22 08:53:13;;;;;;;51.20;28.70;;;;;;;11.09;83.94;100232.79;128278;1281;108831;-77
2024/03/22 08:56:18;;;;;;;15.90;11.60;;;;;;;11.20;82.88;100231.05;128245;1281;107672;-77
2024/03/22 08:59:24;;;;;;;14.90;10.70;;;;;;;11.23;83.02;100228.70;128297;1280;106574;-78
2024/03/22 09:02:29;;;;;;;12.90;9.70;;;;;;;11.05;78.90;100237.57;128310;1280;107721;-78
2024/03/22 09:05:34;;;;;;;19.20;13.10;;;;;;;10.89;80.78;100230.85;128249;1281;108018;-78
2024/03/22 09:08:40;;;;;;;13.20;9.20;;;;;;;10.81;79.57;100226.38;128256;1281;108614;-78
2024/03/22 09:11:45;;;;;;;12.60;9.40;;;;;;;10.71;80.61;100226.08;128271;1279;108854;-78
2024/03/22 09:14:50;;;;;;;12.50;9.50;;;;;;;10.60;80.45;100225.75;128251;1279;108174;-78
2024/03/22 09:17:55;;;;;;;12.60;8.90;;;;;;;10.57;81.97;100222.12;128291;1281;107315;-78
2024/03/22 09:21:00;;;;;;;12.10;8.60;;;;;;;10.61;80.81;100225.46;128400;1277;107830;-78
2024/03/22 09:24:06;;;;;;;14.90;10.70;;;;;;;10.67;81.43;100218.66;128361;1277;108680;-78
2024/03/22 09:27:11;;;;;;;14.60;10.00;;;;;;;10.75;82.10;100214.10;128262;1279;106591;-77
2024/03/22 09:30:17;;;;;;;15.50;11.10;;;;;;;10.90;81.78;100211.13;128279;1281;107781;-77
2024/03/22 09:33:22;;;;;;;14.00;9.80;;;;;;;10.81;79.19;100212.10;128327;1279;107789;-77
2024/03/22 09:36:30;;;;;;;12.70;9.40;;;;;;;10.72;80.90;100210.49;128485;1282;107213;-77
2024/03/22 09:39:35;;;;;;;14.70;10.80;;;;;;;10.74;80.38;100208.52;128271;1279;107297;-77
2024/03/22 09:42:41;;;;;;;14.50;9.40;;;;;;;10.76;81.05;100206.77;128334;1282;106641;-77
2024/03/22 09:45:48;;;;;;;13.50;10.10;;;;;;;10.73;78.71;100213.95;128398;1279;106378;-77
2024/03/22 09:48:55;;;;;;;12.50;9.50;;;;;;;10.64;79.96;100206.37;128416;1281;106636;-77
2024/03/22 09:52:00;;;;;;;108.50;53.60;;;;;;;10.77;80.80;100203.59;128280;1281;108881;-77
2024/03/22 09:55:08;;;;;;;38.40;18.30;;;;;;;10.89;79.21;100205.95;128310;1279;106409;-77
2024/03/22 09:58:13;;;;;;;36.40;22.20;;;;;;;10.87;79.78;100200.50;128398;1279;107746;-77
2024/03/22 10:01:20;;;;;;;15.80;10.80;;;;;;;11.03;80.38;100190.83;128286;1280;107843;-77
2024/03/22 10:04:26;;;;;;;13.20;9.60;;;;;;;11.27;80.68;100187.49;128370;1279;107451;-78
2024/03/22 10:07:31;;;;;;;55.00;23.60;;;;;;;11.41;78.86;100191.13;128325;1281;106537;-77
2024/03/22 10:10:37;;;;;;;18.40;11.10;;;;;;;11.22;76.35;100189.60;128269;1281;108843;-77
2024/03/22 10:13:42;;;;;;;101.50;47.20;;;;;;;11.02;78.57;100185.27;128394;1277;108787;-76
2024/03/22 10:16:47;;;;;;;20.60;13.40;;;;;;;11.05;79.75;100182.42;128229;1280;107521;-77
2024/03/22 10:19:52;;;;;;;30.90;17.80;;;;;;;11.22;79.91;100180.35;128330;1282;108485;-77
2024/03/22 10:22:59;;;;;;;31.10;19.60;;;;;;;11.32;76.98;100178.90;128272;1280;108001;-77
2024/03/22 10:26:06;;;;;;;24.30;14.40;;;;;;;11.30;77.70;100174.55;128421;1281;106908;-77
2024/03/22 10:29:14;;;;;;;60.70;37.30;;;;;;;11.37;77.36;100177.31;128276;1281;108790;-77
2024/03/22 10:32:20;;;;;;;23.20;17.30;;;;;;;11.60;79.10;100173.33;128464;1281;108804;-77
2024/03/22 10:35:26;;;;;;;16.90;13.30;;;;;;;11.78;77.62;100172.16;128296;1278;106874;-77
2024/03/22 10:38:33;;;;;;;27.00;18.80;;;;;;;11.74;75.75;100172.70;128341;1280;107849;-77
2024/03/22 10:41:38;;;;;;;62.70;32.00;;;;;;;11.62;77.75;100169.39;128320;1279;106518;-77
2024/03/22 10:44:43;;;;;;;18.10;11.50;;;;;;;11.65;78.52;100167.83;128261;1281;106832;-77
2024/03/22 10:47:49;;;;;;;15.60;11.50;;;;;;;11.68;77.35;100167.14;128242;1280;106465;-77
2024/03/22 10:51:00;;;;;;;20.30;14.10;;;;;;;11.60;77.38;100162.08;128263;1281;107523;-77
2024/03/22 10:54:09;;;;;;;18.30;11.90;;;;;;;11.67;78.10;100158.48;128287;1281;106600;-77
2024/03/22 10:57:18;;;;;;;15.70;11.60;;;;;;;11.87;78.38;100150.16;128318;1279;107222;-77
2024/03/22 11:00:30;;;;;;;14.50;11.00;;;;;;;12.06;77.81;100142.83;128279;1281;107909;-77
2024/03/22 11:03:37;;;;;;;28.30;18.50;;;;;;;12.17;77.74;100137.02;128275;1279;106414;-77
2024/03/22 11:06:47;;;;;;;25.20;18.40;;;;;;;12.37;77.85;100130.91;128246;1281;108850;-77
2024/03/22 11:09:58;;;;;;;24.70;17.30;;;;;;;12.49;77.24;100126.39;128313;1281;107864;-77
2024/03/22 11:13:06;;;;;;;18.20;12.90;;;;;;;12.59;77.27;100122.79;128302;1280;108594;-77
2024/03/22 11:16:12;;;;;;;18.00;12.90;;;;;;;12.73;76.95;100123.40;128256;1282;107497;-77
2024/03/22 11:19:17;;;;;;;23.20;14.20;;;;;;;12.92;77.05;100110.86;128413;1279;107667;-77
2024/03/22 11:22:23;;;;;;;22.10;14.10;;;;;;;13.05;75.74;100105.34;128467;1281;108796;-77
2024/03/22 11:25:28;;;;;;;16.40;11.70;;;;;;;13.16;76.14;100105.45;128406;1279;106453;-77
2024/03/22 11:28:33;;;;;;;13.20;10.90;;;;;;;13.26;75.37;100094.24;128258;1280;107534;-77
2024/03/22 11:31:38;;;;;;;29.50;13.80;;;;;;;13.22;74.95;100085.71;128268;1277;107726;-77
2024/03/22 11:34:46;;;;;;;25.70;13.00;;;;;;;13.25;74.62;100084.29;128354;1281;108582;-77
2024/03/22 11:37:52;;;;;;;19.90;12.80;;;;;;;13.20;75.22;100084.72;128266;1281;107689;-77
2024/03/22 11:41:01;;;;;;;20.30;12.80;;;;;;;13.26;75.59;100082.45;128250;1279;106660;-77
2024/03/22 11:44:06;;;;;;;21.50;13.10;;;;;;;13.37;75.29;100082.34;128289;1279;107774;-77
2024/03/22 11:47:12;;;;;;;23.30;15.50;;;;;;;13.42;75.03;100079.25;128288;1279;107988;-77
2024/03/22 11:50:17;;;;;;;17.20;12.00;;;;;;;13.46;74.89;100077.67;128265;1282;108600;-77
2024/03/22 11:53:22;;;;;;;16.50;11.70;;;;;;;13.49;74.81;100074.17;128374;1282;106676;-77
2024/03/22 11:56:28;;;;;;;20.90;13.30;;;;;;;13.51;74.63;100067.40;128279;1278;107772;-77
2024/03/22 11:59:33;;;;;;;22.60;13.80;;;;;;;13.49;74.63;100067.68;128357;1282;106520;-77
2024/03/22 12:02:38;;;;;;;15.30;11.60;;;;;;;13.48;74.49;100062.26;128368;1281;107819;-77
2024/03/22 12:05:44;;;;;;;15.80;11.70;;;;;;;13.44;73.74;100070.98;128460;1281;108503;-77
2024/03/22 12:08:50;;;;;;;15.00;11.20;;;;;;;13.35;73.67;100071.41;128408;1277;108663;-77
2024/03/22 12:11:57;;;;;;;15.70;12.10;;;;;;;13.19;72.14;100073.53;128295;1281;108664;-77
2024/03/22 12:15:02;;;;;;;14.70;11.20;;;;;;;13.07;72.89;100065.41;128352;1281;108941;-77
2024/03/22 12:18:08;;;;;;;14.60;11.80;;;;;;;13.00;72.42;100074.08;128370;1281;106865;-78
2024/03/22 12:21:13;;;;;;;16.30;12.40;;;;;;;12.87;71.85;100073.98;128364;1281;108434;-77
2024/03/22 12:24:19;;;;;;;15.00;12.00;;;;;;;12.74;72.21;100074.73;128372;1281;107693;-77
2024/03/22 12:27:24;;;;;;;18.40;13.50;;;;;;;12.64;71.90;100068.69;128346;1281;105990;-77
2024/03/22 12:30:29;;;;;;;18.60;14.20;;;;;;;12.65;72.03;100062.17;128381;1278;108887;-77
2024/03/22 12:33:34;;;;;;;18.80;13.40;;;;;;;12.68;72.04;100060.56;128300;1281;108686;-77
2024/03/22 12:36:39;;;;;;;18.70;13.20;;;;;;;12.74;71.66;100047.70;128362;1281;108216;-77
2024/03/22 12:39:45;;;;;;;24.40;16.00;;;;;;;12.84;71.58;100045.23;128362;1281;108601;-77
2024/03/22 12:42:50;;;;;;;19.00;13.40;;;;;;;12.83;70.87;100042.41;128387;1280;106723;-77
2024/03/22 12:45:55;;;;;;;17.60;13.70;;;;;;;12.82;70.95;100037.60;128345;1281;107837;-78
2024/03/22 12:49:00;;;;;;;19.80;15.00;;;;;;;12.78;70.53;100036.91;128441;1279;108091;-77
2024/03/22 12:52:06;;;;;;;18.30;14.70;;;;;;;12.73;70.36;100032.64;128354;1281;107856;-77
2024/03/22 12:55:11;;;;;;;19.20;14.70;;;;;;;12.71;70.33;100029.30;128424;1278;106599;-77
2024/03/22 12:58:16;;;;;;;18.70;14.10;;;;;;;12.68;70.86;100023.05;128418;1281;107803;-77
2024/03/22 13:01:23;;;;;;;19.40;14.20;;;;;;;12.70;71.18;100022.17;128353;1280;108794;-77
2024/03/22 13:04:28;;;;;;;16.70;13.30;;;;;;;12.74;71.06;100019.89;128325;1281;106427;-77
2024/03/22 13:07:33;;;;;;;16.50;12.40;;;;;;;12.79;71.04;100015.22;128321;1281;107487;-77
2024/03/22 13:10:42;;;;;;;16.50;13.10;;;;;;;12.85;71.16;100015.77;128354;1281;106831;-77
2024/03/22 13:13:48;;;;;;;16.30;12.00;;;;;;;12.95;71.44;100014.15;128361;1279;106746;-77
2024/03/22 13:16:53;;;;;;;21.50;15.60;;;;;;;13.06;71.37;100015.59;128379;1280;108444;-77
2024/03/22 13:19:59;;;;;;;21.60;15.50;;;;;;;13.07;70.87;100007.44;128502;1291;107933;-78
2024/03/22 13:23:05;;;;;;;17.20;13.40;;;;;;;13.07;70.85;99998.11;128321;1279;107118;-77
2024/03/22 13:26:11;;;;;;;17.10;13.30;;;;;;;13.08;70.80;99989.31;128558;1281;106827;-77
2024/03/22 13:29:16;;;;;;;22.70;16.00;;;;;;;13.02;70.31;99985.65;128456;1281;109098;-77
2024/03/22 13:32:21;;;;;;;16.80;12.80;;;;;;;12.90;70.87;99976.48;128341;1279;107825;-77
2024/03/22 13:35:27;;;;;;;14.40;11.50;;;;;;;12.84;70.75;99977.55;128520;1281;107864;-79
2024/03/22 13:38:32;;;;;;;51.20;26.40;;;;;;;12.77;71.20;99977.08;128591;1281;106541;-79
2024/03/22 13:41:37;;;;;;;20.90;16.10;;;;;;;12.67;71.03;99977.85;128435;1280;107774;-78
2024/03/22 13:44:43;;;;;;;70.80;41.70;;;;;;;12.48;70.74;99970.54;128522;1279;107198;-79
2024/03/22 13:47:49;;;;;;;72.30;47.90;;;;;;;12.37;71.47;99975.19;128422;1280;108784;-79